RYR42H EDDH-EDDF
Flight info
| Callsign | RYR42H |
|---|---|
| Flight time | 0h 55m |
| Altitude | 32000 |
| Route | HABFU1G HABFU Y348 MAWEQ DCT BIGGE DCT ROLIS ROLIS5A |
| Aircraft | B738/M-SDE2E3FGHIRWXY/LB1 |
Departure
| Time | 2026-05-06 19:10 |
|---|---|
| Airport | Hamburg Helmut Schmidt Airport (EDDH) |
Arrival
| Time | 2026-05-06 20:05 |
|---|---|
| Airport | Frankfurt Main Airport (EDDF) |
| Time | Latitude | Longitude | Altitude | Speed | Heading |
|---|---|---|---|---|---|
| 2026-05-06 18:45 | 53.63349 | 10.00061 | 43 ft | 0 kts | 140° |
| 2026-05-06 19:03 | 53.63350 | 10.00059 | 17 ft | 2 kts | 140° |
| 2026-05-06 19:03 | 53.63362 | 10.00040 | 45 ft | 2 kts | 131° |
| 2026-05-06 19:03 | 53.63372 | 10.00018 | 42 ft | 2 kts | 118° |
| 2026-05-06 19:03 | 53.63377 | 9.99992 | 44 ft | 2 kts | 94° |
| 2026-05-06 19:04 | 53.63376 | 9.99965 | 43 ft | 2 kts | 66° |
| 2026-05-06 19:04 | 53.63368 | 9.99942 | 39 ft | 1 kts | 52° |
| 2026-05-06 19:04 | 53.63365 | 9.99936 | 41 ft | 0 kts | 51° |
| 2026-05-06 19:06 | 53.63366 | 9.99938 | 41 ft | 1 kts | 50° |
| 2026-05-06 19:06 | 53.63386 | 9.99979 | 42 ft | 9 kts | 51° |
| 2026-05-06 19:06 | 53.63422 | 10.00077 | 45 ft | 10 kts | 72° |
| 2026-05-06 19:06 | 53.63395 | 10.00189 | 45 ft | 11 kts | 135° |
| 2026-05-06 19:07 | 53.63337 | 10.00173 | 42 ft | 11 kts | 194° |
| 2026-05-06 19:07 | 53.63253 | 10.00174 | 44 ft | 13 kts | 176° |
| 2026-05-06 19:07 | 53.63146 | 10.00187 | 44 ft | 14 kts | 176° |
| 2026-05-06 19:07 | 53.63133 | 10.00189 | 44 ft | 0 kts | 176° |
| 2026-05-06 19:08 | 53.63119 | 10.00190 | 44 ft | 6 kts | 178° |
| 2026-05-06 19:08 | 53.63049 | 10.00158 | 43 ft | 12 kts | 212° |
| 2026-05-06 19:08 | 53.62971 | 10.00075 | 43 ft | 15 kts | 212° |
| 2026-05-06 19:08 | 53.62906 | 9.99940 | 45 ft | 11 kts | 242° |
| 2026-05-06 19:09 | 53.62902 | 9.99929 | 45 ft | 1 kts | 242° |
| 2026-05-06 19:09 | 53.62881 | 9.99858 | 46 ft | 14 kts | 243° |
| 2026-05-06 19:09 | 53.62956 | 9.99672 | 45 ft | 45 kts | 334° |
| 2026-05-06 19:09 | 53.63476 | 9.99221 | 45 ft | 121 kts | 333° |
| 2026-05-06 19:10 | 53.64423 | 9.98423 | 70 ft | 180 kts | 334° |
| 2026-05-06 19:10 | 53.65614 | 9.97351 | 551 ft | 205 kts | 335° |
| 2026-05-06 19:10 | 53.66906 | 9.96188 | 1268 ft | 213 kts | 337° |
| 2026-05-06 19:10 | 53.68218 | 9.95112 | 2100 ft | 210 kts | 339° |
| 2026-05-06 19:11 | 53.69578 | 9.94019 | 2726 ft | 217 kts | 339° |
| 2026-05-06 19:11 | 53.70946 | 9.92920 | 3305 ft | 226 kts | 339° |
| 2026-05-06 19:11 | 53.72414 | 9.91751 | 3807 ft | 238 kts | 338° |
| 2026-05-06 19:11 | 53.73937 | 9.90561 | 4466 ft | 244 kts | 339° |
| 2026-05-06 19:12 | 53.75551 | 9.89313 | 4780 ft | 261 kts | 338° |
| 2026-05-06 19:12 | 53.77216 | 9.87987 | 5027 ft | 266 kts | 337° |
| 2026-05-06 19:12 | 53.78887 | 9.86630 | 5017 ft | 266 kts | 337° |
| 2026-05-06 19:12 | 53.80559 | 9.85322 | 5021 ft | 263 kts | 343° |
| 2026-05-06 19:13 | 53.82333 | 9.84922 | 5020 ft | 257 kts | 7° |
| 2026-05-06 19:13 | 53.83484 | 9.85335 | 5022 ft | 254 kts | 22° |
| 2026-05-06 19:13 | 53.85406 | 9.87471 | 5027 ft | 251 kts | 49° |
| 2026-05-06 19:13 | 53.86338 | 9.89943 | 5029 ft | 251 kts | 68° |
| 2026-05-06 19:14 | 53.86689 | 9.92831 | 5033 ft | 253 kts | 89° |
| 2026-05-06 19:14 | 53.86391 | 9.95768 | 5029 ft | 256 kts | 110° |
| 2026-05-06 19:14 | 53.85468 | 9.98362 | 5034 ft | 261 kts | 129° |
| 2026-05-06 19:14 | 53.84100 | 10.00415 | 5034 ft | 264 kts | 139° |
| 2026-05-06 19:15 | 53.82647 | 10.02313 | 5068 ft | 263 kts | 140° |
| 2026-05-06 19:15 | 53.81205 | 10.04175 | 5077 ft | 264 kts | 140° |
| 2026-05-06 19:15 | 53.79735 | 10.06076 | 5035 ft | 267 kts | 140° |
| 2026-05-06 19:15 | 53.78259 | 10.07988 | 5028 ft | 267 kts | 140° |
| 2026-05-06 19:16 | 53.76780 | 10.09908 | 5034 ft | 267 kts | 140° |
| 2026-05-06 19:16 | 53.75304 | 10.11828 | 5105 ft | 270 kts | 140° |
| 2026-05-06 19:16 | 53.73797 | 10.13788 | 5799 ft | 273 kts | 140° |
| 2026-05-06 19:16 | 53.72289 | 10.15747 | 6711 ft | 274 kts | 140° |
| 2026-05-06 19:17 | 53.70745 | 10.17696 | 7520 ft | 279 kts | 147° |
| 2026-05-06 19:17 | 53.68891 | 10.18662 | 8305 ft | 286 kts | 178° |
| 2026-05-06 19:17 | 53.66949 | 10.17918 | 9074 ft | 291 kts | 207° |
| 2026-05-06 19:17 | 53.65257 | 10.16025 | 9689 ft | 295 kts | 219° |
| 2026-05-06 19:18 | 53.63702 | 10.13835 | 9909 ft | 289 kts | 221° |
| 2026-05-06 19:18 | 53.62167 | 10.11570 | 9907 ft | 297 kts | 222° |
| 2026-05-06 19:18 | 53.60613 | 10.09263 | 9922 ft | 298 kts | 221° |
| 2026-05-06 19:18 | 53.59051 | 10.06961 | 9910 ft | 298 kts | 221° |
| 2026-05-06 19:19 | 53.57498 | 10.04689 | 9953 ft | 304 kts | 221° |
| 2026-05-06 19:19 | 53.55829 | 10.02279 | 10151 ft | 327 kts | 219° |
| 2026-05-06 19:19 | 53.53939 | 9.99897 | 10326 ft | 350 kts | 214° |
| 2026-05-06 19:19 | 53.51867 | 9.97511 | 10561 ft | 370 kts | 213° |
| 2026-05-06 19:20 | 53.49698 | 9.95069 | 11125 ft | 376 kts | 214° |
| 2026-05-06 19:20 | 53.47515 | 9.92613 | 11874 ft | 379 kts | 214° |
| 2026-05-06 19:20 | 53.45322 | 9.90131 | 12602 ft | 382 kts | 214° |
| 2026-05-06 19:20 | 53.43114 | 9.87617 | 13336 ft | 384 kts | 215° |
| 2026-05-06 19:21 | 53.40932 | 9.85121 | 14012 ft | 386 kts | 214° |
| 2026-05-06 19:21 | 53.39433 | 9.83402 | 14456 ft | 387 kts | 215° |
| 2026-05-06 19:21 | 53.36480 | 9.80013 | 15410 ft | 388 kts | 215° |
| 2026-05-06 19:21 | 53.34243 | 9.77444 | 15974 ft | 393 kts | 215° |
| 2026-05-06 19:22 | 53.31981 | 9.74848 | 16579 ft | 395 kts | 215° |
| 2026-05-06 19:22 | 53.29706 | 9.72241 | 17248 ft | 397 kts | 215° |
| 2026-05-06 19:22 | 53.28194 | 9.70509 | 17650 ft | 399 kts | 215° |
| 2026-05-06 19:22 | 53.25894 | 9.67880 | 18238 ft | 402 kts | 215° |
| 2026-05-06 19:23 | 53.23524 | 9.65365 | 18713 ft | 406 kts | 208° |
| 2026-05-06 19:23 | 53.20928 | 9.63430 | 19208 ft | 410 kts | 203° |
| 2026-05-06 19:23 | 53.18276 | 9.61627 | 19691 ft | 413 kts | 203° |
| 2026-05-06 19:23 | 53.15595 | 9.59828 | 19864 ft | 415 kts | 203° |
| 2026-05-06 19:24 | 53.12913 | 9.58024 | 19872 ft | 415 kts | 203° |
| 2026-05-06 19:24 | 53.10238 | 9.56208 | 19881 ft | 415 kts | 203° |
| 2026-05-06 19:24 | 53.07598 | 9.54403 | 19888 ft | 415 kts | 203° |
| 2026-05-06 19:24 | 53.04924 | 9.52564 | 19883 ft | 415 kts | 204° |
| 2026-05-06 19:25 | 53.02256 | 9.50724 | 19881 ft | 415 kts | 204° |
| 2026-05-06 19:25 | 52.99580 | 9.48876 | 19881 ft | 415 kts | 204° |
| 2026-05-06 19:25 | 52.96903 | 9.47029 | 19870 ft | 415 kts | 204° |
| 2026-05-06 19:25 | 52.94235 | 9.45189 | 19872 ft | 415 kts | 204° |
| 2026-05-06 19:26 | 52.91567 | 9.43351 | 19873 ft | 415 kts | 204° |
| 2026-05-06 19:26 | 52.88904 | 9.41518 | 19871 ft | 415 kts | 204° |
| 2026-05-06 19:26 | 52.86265 | 9.39706 | 19870 ft | 416 kts | 204° |
| 2026-05-06 19:26 | 52.83571 | 9.37857 | 20125 ft | 421 kts | 204° |
| 2026-05-06 19:27 | 52.80865 | 9.36003 | 20731 ft | 420 kts | 204° |
| 2026-05-06 19:27 | 52.78158 | 9.34152 | 21291 ft | 421 kts | 204° |
| 2026-05-06 19:27 | 52.75439 | 9.32293 | 21726 ft | 425 kts | 204° |
| 2026-05-06 19:27 | 52.72695 | 9.30422 | 22134 ft | 428 kts | 204° |
| 2026-05-06 19:28 | 52.69923 | 9.28532 | 22557 ft | 432 kts | 204° |
| 2026-05-06 19:28 | 52.67137 | 9.26637 | 22972 ft | 435 kts | 204° |
| 2026-05-06 19:28 | 52.64331 | 9.24730 | 23388 ft | 437 kts | 204° |
| 2026-05-06 19:28 | 52.61518 | 9.22822 | 23812 ft | 438 kts | 204° |
| 2026-05-06 19:29 | 52.58695 | 9.20910 | 24181 ft | 440 kts | 204° |
| 2026-05-06 19:29 | 52.55854 | 9.18988 | 24514 ft | 443 kts | 204° |
| 2026-05-06 19:29 | 52.52991 | 9.17054 | 24841 ft | 445 kts | 204° |
| 2026-05-06 19:29 | 52.50122 | 9.15118 | 25173 ft | 447 kts | 204° |
| 2026-05-06 19:30 | 52.47235 | 9.13173 | 25503 ft | 449 kts | 204° |
| 2026-05-06 19:30 | 52.44336 | 9.11223 | 25817 ft | 451 kts | 204° |
| 2026-05-06 19:30 | 52.41465 | 9.09294 | 26141 ft | 453 kts | 204° |
| 2026-05-06 19:30 | 52.38554 | 9.07342 | 26575 ft | 452 kts | 204° |
| 2026-05-06 19:31 | 52.35653 | 9.05399 | 27074 ft | 449 kts | 204° |
| 2026-05-06 19:31 | 52.32761 | 9.03466 | 27568 ft | 447 kts | 204° |
| 2026-05-06 19:31 | 52.26973 | 8.99602 | 27852 ft | 452 kts | 204° |
| 2026-05-06 19:32 | 52.24057 | 8.97659 | 27855 ft | 451 kts | 203° |
| 2026-05-06 19:32 | 52.21166 | 8.95737 | 27850 ft | 447 kts | 203° |
| 2026-05-06 19:32 | 52.18288 | 8.93826 | 27850 ft | 446 kts | 203° |
| 2026-05-06 19:32 | 52.15411 | 8.91918 | 27862 ft | 447 kts | 203° |
| 2026-05-06 19:33 | 52.12520 | 8.90003 | 27857 ft | 448 kts | 203° |
| 2026-05-06 19:33 | 52.09632 | 8.88092 | 27860 ft | 448 kts | 203° |
| 2026-05-06 19:33 | 52.06772 | 8.86203 | 27861 ft | 449 kts | 203° |
| 2026-05-06 19:33 | 52.03840 | 8.84269 | 27864 ft | 450 kts | 203° |
| 2026-05-06 19:34 | 52.00971 | 8.82379 | 27862 ft | 450 kts | 203° |
| 2026-05-06 19:34 | 51.98065 | 8.80468 | 27858 ft | 450 kts | 203° |
| 2026-05-06 19:34 | 51.95163 | 8.78562 | 27849 ft | 450 kts | 202° |
| 2026-05-06 19:34 | 51.92257 | 8.76656 | 27851 ft | 449 kts | 202° |
| 2026-05-06 19:35 | 51.89378 | 8.74771 | 27846 ft | 446 kts | 202° |
| 2026-05-06 19:35 | 51.86496 | 8.72886 | 27854 ft | 446 kts | 202° |
| 2026-05-06 19:35 | 51.83621 | 8.71008 | 27859 ft | 446 kts | 202° |
| 2026-05-06 19:35 | 51.80743 | 8.69131 | 27858 ft | 446 kts | 202° |
| 2026-05-06 19:36 | 51.77869 | 8.67259 | 27858 ft | 446 kts | 202° |
| 2026-05-06 19:36 | 51.74991 | 8.65387 | 27859 ft | 446 kts | 202° |
| 2026-05-06 19:36 | 51.72117 | 8.63520 | 27849 ft | 446 kts | 202° |
| 2026-05-06 19:36 | 51.69237 | 8.61652 | 27856 ft | 445 kts | 202° |
| 2026-05-06 19:37 | 51.66359 | 8.59788 | 27862 ft | 445 kts | 202° |
| 2026-05-06 19:37 | 51.63477 | 8.57923 | 27858 ft | 445 kts | 202° |
| 2026-05-06 19:37 | 51.60559 | 8.56248 | 27838 ft | 447 kts | 193° |
| 2026-05-06 19:37 | 51.57458 | 8.56072 | 27865 ft | 449 kts | 172° |
| 2026-05-06 19:38 | 51.54457 | 8.57463 | 27862 ft | 452 kts | 157° |
| 2026-05-06 19:38 | 51.51708 | 8.59921 | 27871 ft | 453 kts | 150° |
| 2026-05-06 19:38 | 51.49016 | 8.62574 | 27854 ft | 454 kts | 150° |
| 2026-05-06 19:38 | 51.46330 | 8.65240 | 27856 ft | 454 kts | 150° |
| 2026-05-06 19:39 | 51.43642 | 8.67892 | 27841 ft | 453 kts | 151° |
| 2026-05-06 19:39 | 51.40981 | 8.70494 | 27766 ft | 452 kts | 152° |
| 2026-05-06 19:39 | 51.38294 | 8.73101 | 27104 ft | 452 kts | 152° |
| 2026-05-06 19:39 | 51.35585 | 8.75708 | 26549 ft | 454 kts | 152° |
| 2026-05-06 19:40 | 51.32864 | 8.78312 | 25991 ft | 457 kts | 152° |
| 2026-05-06 19:40 | 51.30114 | 8.80936 | 25435 ft | 462 kts | 152° |
| 2026-05-06 19:40 | 51.27357 | 8.83562 | 24883 ft | 458 kts | 152° |
| 2026-05-06 19:40 | 51.24640 | 8.86151 | 24347 ft | 451 kts | 151° |
| 2026-05-06 19:41 | 51.21961 | 8.88702 | 23995 ft | 441 kts | 152° |
| 2026-05-06 19:41 | 51.19348 | 8.91188 | 23710 ft | 435 kts | 152° |
| 2026-05-06 19:41 | 51.16751 | 8.93653 | 23122 ft | 431 kts | 152° |
| 2026-05-06 19:41 | 51.14171 | 8.96097 | 22520 ft | 426 kts | 152° |
| 2026-05-06 19:42 | 51.11675 | 8.98458 | 21944 ft | 422 kts | 153° |
| 2026-05-06 19:42 | 51.09050 | 9.00464 | 21346 ft | 415 kts | 163° |
| 2026-05-06 19:42 | 51.06283 | 9.01632 | 20800 ft | 409 kts | 170° |
| 2026-05-06 19:42 | 51.03510 | 9.02595 | 20244 ft | 406 kts | 170° |
| 2026-05-06 19:43 | 51.00754 | 9.03543 | 19685 ft | 403 kts | 170° |
| 2026-05-06 19:43 | 50.98015 | 9.04498 | 19145 ft | 401 kts | 170° |
| 2026-05-06 19:43 | 50.95303 | 9.05459 | 18618 ft | 398 kts | 170° |
| 2026-05-06 19:43 | 50.92601 | 9.06428 | 18095 ft | 396 kts | 170° |
| 2026-05-06 19:44 | 50.89917 | 9.07396 | 17495 ft | 394 kts | 169° |
| 2026-05-06 19:44 | 50.87246 | 9.08364 | 16917 ft | 392 kts | 169° |
| 2026-05-06 19:44 | 50.84620 | 9.09317 | 16345 ft | 390 kts | 169° |
| 2026-05-06 19:44 | 50.81971 | 9.10277 | 15783 ft | 388 kts | 169° |
| 2026-05-06 19:45 | 50.79341 | 9.11230 | 15229 ft | 387 kts | 169° |
| 2026-05-06 19:45 | 50.76723 | 9.12176 | 14687 ft | 385 kts | 169° |
| 2026-05-06 19:45 | 50.74117 | 9.13118 | 14151 ft | 382 kts | 169° |
| 2026-05-06 19:45 | 50.71534 | 9.14050 | 13625 ft | 379 kts | 169° |
| 2026-05-06 19:46 | 50.69009 | 9.14959 | 13046 ft | 376 kts | 169° |
| 2026-05-06 19:46 | 50.66464 | 9.15876 | 12471 ft | 373 kts | 169° |
| 2026-05-06 19:46 | 50.63935 | 9.16785 | 11895 ft | 371 kts | 169° |
| 2026-05-06 19:46 | 50.61429 | 9.17685 | 11346 ft | 368 kts | 169° |
| 2026-05-06 19:47 | 50.58945 | 9.18577 | 10983 ft | 361 kts | 169° |
| 2026-05-06 19:47 | 50.56504 | 9.19451 | 10882 ft | 361 kts | 169° |
| 2026-05-06 19:47 | 50.54067 | 9.20323 | 10822 ft | 357 kts | 169° |
| 2026-05-06 19:47 | 50.51654 | 9.21187 | 10825 ft | 355 kts | 169° |
| 2026-05-06 19:48 | 50.49243 | 9.22048 | 10806 ft | 354 kts | 169° |
| 2026-05-06 19:48 | 50.46832 | 9.22857 | 10816 ft | 352 kts | 175° |
| 2026-05-06 19:48 | 50.44427 | 9.22528 | 10816 ft | 346 kts | 201° |
| 2026-05-06 19:48 | 50.42399 | 9.20574 | 10838 ft | 344 kts | 223° |
| 2026-05-06 19:49 | 50.40691 | 9.17949 | 10819 ft | 344 kts | 227° |
| 2026-05-06 19:49 | 50.39173 | 9.15106 | 10710 ft | 346 kts | 236° |
| 2026-05-06 19:49 | 50.38089 | 9.11752 | 10451 ft | 344 kts | 248° |
| 2026-05-06 19:49 | 50.37268 | 9.08247 | 10093 ft | 343 kts | 250° |
| 2026-05-06 19:50 | 50.36489 | 9.04777 | 9797 ft | 327 kts | 250° |
| 2026-05-06 19:50 | 50.35756 | 9.01536 | 9765 ft | 304 kts | 250° |
| 2026-05-06 19:50 | 50.35059 | 8.98506 | 9577 ft | 288 kts | 249° |
| 2026-05-06 19:50 | 50.34386 | 8.95615 | 9300 ft | 276 kts | 249° |
| 2026-05-06 19:51 | 50.33736 | 8.92839 | 9027 ft | 266 kts | 249° |
| 2026-05-06 19:51 | 50.33114 | 8.90189 | 8771 ft | 261 kts | 249° |
| 2026-05-06 19:51 | 50.32477 | 8.87502 | 8513 ft | 258 kts | 246° |
| 2026-05-06 19:51 | 50.31475 | 8.85262 | 8176 ft | 258 kts | 220° |
| 2026-05-06 19:52 | 50.29856 | 8.83981 | 7726 ft | 266 kts | 195° |
| 2026-05-06 19:52 | 50.27989 | 8.83863 | 7269 ft | 272 kts | 171° |
| 2026-05-06 19:52 | 50.26183 | 8.84755 | 6945 ft | 270 kts | 162° |
| 2026-05-06 19:52 | 50.25022 | 8.85449 | 6790 ft | 268 kts | 159° |
| 2026-05-06 19:53 | 50.23161 | 8.87955 | 6442 ft | 276 kts | 121° |
| 2026-05-06 19:53 | 50.22636 | 8.90853 | 6201 ft | 283 kts | 92° |
| 2026-05-06 19:53 | 50.22979 | 8.93880 | 5972 ft | 286 kts | 71° |
| 2026-05-06 19:53 | 50.23666 | 8.96805 | 5627 ft | 285 kts | 69° |
| 2026-05-06 19:54 | 50.24375 | 8.99674 | 5288 ft | 279 kts | 69° |
| 2026-05-06 19:54 | 50.25050 | 9.02464 | 5019 ft | 270 kts | 69° |
| 2026-05-06 19:54 | 50.25685 | 9.05145 | 4750 ft | 264 kts | 70° |
| 2026-05-06 19:54 | 50.26313 | 9.07824 | 4512 ft | 262 kts | 70° |
| 2026-05-06 19:55 | 50.26597 | 9.10597 | 4215 ft | 258 kts | 97° |
| 2026-05-06 19:55 | 50.25996 | 9.13148 | 4020 ft | 247 kts | 129° |
| 2026-05-06 19:55 | 50.24694 | 9.14771 | 3968 ft | 239 kts | 161° |
| 2026-05-06 19:55 | 50.23091 | 9.15070 | 3963 ft | 231 kts | 193° |
| 2026-05-06 19:56 | 50.21599 | 9.14355 | 3952 ft | 219 kts | 202° |
| 2026-05-06 19:56 | 50.20212 | 9.13529 | 3941 ft | 209 kts | 203° |
| 2026-05-06 19:56 | 50.18884 | 9.12724 | 3957 ft | 206 kts | 203° |
| 2026-05-06 19:56 | 50.17552 | 9.11917 | 3982 ft | 206 kts | 204° |
| 2026-05-06 19:57 | 50.16215 | 9.11105 | 3980 ft | 206 kts | 204° |
| 2026-05-06 19:57 | 50.14881 | 9.10288 | 3976 ft | 205 kts | 206° |
| 2026-05-06 19:57 | 50.13785 | 9.08943 | 3962 ft | 200 kts | 239° |
| 2026-05-06 19:57 | 50.13425 | 9.06879 | 3984 ft | 202 kts | 270° |
| 2026-05-06 19:58 | 50.13681 | 9.04715 | 3985 ft | 203 kts | 285° |
| 2026-05-06 19:58 | 50.14026 | 9.02608 | 3967 ft | 203 kts | 279° |
| 2026-05-06 19:58 | 50.13896 | 9.00448 | 3984 ft | 202 kts | 253° |
| 2026-05-06 19:58 | 50.13477 | 8.98355 | 3980 ft | 202 kts | 253° |
| 2026-05-06 19:59 | 50.13048 | 8.96309 | 3968 ft | 192 kts | 251° |
| 2026-05-06 19:59 | 50.12612 | 8.94401 | 3969 ft | 184 kts | 250° |
| 2026-05-06 19:59 | 50.12168 | 8.92531 | 3977 ft | 183 kts | 250° |
| 2026-05-06 19:59 | 50.11724 | 8.90674 | 3986 ft | 183 kts | 250° |
| 2026-05-06 20:00 | 50.11275 | 8.88815 | 3978 ft | 184 kts | 250° |
| 2026-05-06 20:00 | 50.10821 | 8.86949 | 3988 ft | 184 kts | 250° |
| 2026-05-06 20:00 | 50.10370 | 8.85082 | 3936 ft | 183 kts | 250° |
| 2026-05-06 20:00 | 50.09927 | 8.83252 | 3722 ft | 182 kts | 251° |
| 2026-05-06 20:01 | 50.09494 | 8.81464 | 3480 ft | 179 kts | 251° |
| 2026-05-06 20:01 | 50.09061 | 8.79669 | 3243 ft | 177 kts | 251° |
| 2026-05-06 20:01 | 50.08636 | 8.77884 | 3046 ft | 172 kts | 251° |
| 2026-05-06 20:01 | 50.08186 | 8.76147 | 2765 ft | 174 kts | 250° |
| 2026-05-06 20:02 | 50.07717 | 8.74411 | 2478 ft | 173 kts | 250° |
| 2026-05-06 20:02 | 50.07270 | 8.72735 | 2234 ft | 160 kts | 252° |
| 2026-05-06 20:02 | 50.06912 | 8.71180 | 2002 ft | 147 kts | 256° |
| 2026-05-06 20:02 | 50.06626 | 8.69683 | 1684 ft | 142 kts | 255° |
| 2026-05-06 20:03 | 50.06292 | 8.68248 | 1516 ft | 142 kts | 252° |
| 2026-05-06 20:03 | 50.05948 | 8.66783 | 1425 ft | 147 kts | 253° |
| 2026-05-06 20:03 | 50.05598 | 8.65275 | 1233 ft | 151 kts | 251° |
| 2026-05-06 20:03 | 50.05225 | 8.63730 | 1040 ft | 149 kts | 250° |
| 2026-05-06 20:04 | 50.04861 | 8.62286 | 825 ft | 142 kts | 252° |
| 2026-05-06 20:04 | 50.04529 | 8.60845 | 665 ft | 143 kts | 252° |
| 2026-05-06 20:04 | 50.04187 | 8.59390 | 478 ft | 146 kts | 250° |
| 2026-05-06 20:04 | 50.03831 | 8.57923 | 355 ft | 141 kts | 251° |
| 2026-05-06 20:05 | 50.03529 | 8.56652 | 347 ft | 104 kts | 249° |
| 2026-05-06 20:05 | 50.03383 | 8.56043 | 349 ft | 77 kts | 249° |
| 2026-05-06 20:05 | 50.03193 | 8.55250 | 345 ft | 39 kts | 250° |
| 2026-05-06 20:05 | 50.03186 | 8.54891 | 346 ft | 32 kts | 279° |
| 2026-05-06 20:06 | 50.03212 | 8.54678 | 345 ft | 0 kts | 278° |
| 2026-05-06 20:06 | 50.03213 | 8.54673 | 345 ft | 2 kts | 278° |
| 2026-05-06 20:06 | 50.03246 | 8.54608 | 352 ft | 11 kts | 352° |
| 2026-05-06 20:06 | 50.03281 | 8.54658 | 348 ft | 12 kts | 72° |
| 2026-05-06 20:07 | 50.03358 | 8.54913 | 352 ft | 35 kts | 69° |
| 2026-05-06 20:07 | 50.03462 | 8.55345 | 345 ft | 46 kts | 70° |
| 2026-05-06 20:07 | 50.03570 | 8.55795 | 349 ft | 43 kts | 69° |
| 2026-05-06 20:07 | 50.03671 | 8.56217 | 349 ft | 40 kts | 69° |
| 2026-05-06 20:08 | 50.03734 | 8.56483 | 345 ft | 38 kts | 69° |
| 2026-05-06 20:08 | 50.03825 | 8.56858 | 352 ft | 36 kts | 70° |
| 2026-05-06 20:08 | 50.03908 | 8.57207 | 347 ft | 33 kts | 69° |
| 2026-05-06 20:08 | 50.03987 | 8.57540 | 351 ft | 33 kts | 69° |
| 2026-05-06 20:09 | 50.04070 | 8.57880 | 353 ft | 35 kts | 69° |
| 2026-05-06 20:09 | 50.04160 | 8.58233 | 350 ft | 34 kts | 68° |
| 2026-05-06 20:09 | 50.04234 | 8.58571 | 350 ft | 32 kts | 69° |
| 2026-05-06 20:09 | 50.04307 | 8.58882 | 349 ft | 30 kts | 69° |
| 2026-05-06 20:10 | 50.04377 | 8.59171 | 348 ft | 28 kts | 70° |
| 2026-05-06 20:10 | 50.04447 | 8.59436 | 345 ft | 24 kts | 51° |
| 2026-05-06 20:10 | 50.04543 | 8.59469 | 345 ft | 0 kts | 358° |
| 2026-05-06 20:10 | 50.04552 | 8.59469 | 345 ft | 8 kts | 358° |
| 2026-05-06 20:11 | 50.04628 | 8.59462 | 345 ft | 12 kts | 355° |
| 2026-05-06 20:11 | 50.04723 | 8.59433 | 346 ft | 17 kts | 343° |
| 2026-05-06 20:11 | 50.04834 | 8.59372 | 348 ft | 16 kts | 345° |
| 2026-05-06 20:11 | 50.04945 | 8.59358 | 353 ft | 16 kts | 348° |
| 2026-05-06 20:12 | 50.05049 | 8.59307 | 352 ft | 16 kts | 330° |
| 2026-05-06 20:12 | 50.05068 | 8.59158 | 346 ft | 15 kts | 251° |
| 2026-05-06 20:12 | 50.05036 | 8.59004 | 346 ft | 15 kts | 254° |
| 2026-05-06 20:12 | 50.05002 | 8.58859 | 347 ft | 14 kts | 247° |
| 2026-05-06 20:13 | 50.04938 | 8.58779 | 348 ft | 11 kts | 181° |
| 2026-05-06 20:13 | 50.04905 | 8.58795 | 353 ft | 3 kts | 158° |
| 2026-05-06 20:13 | 50.04902 | 8.58797 | 353 ft | 0 kts | 159° |